Terminal Aerodrome Forecast
Issued by NWS

Home | Current Version | Previous Version | Text Only | Print | Product List | Glossary On
Versions: 1 2 3 4 5 6 7 8 9 10 11 12 13 14
000
FTUS42 TJSJ 311739
TAFIST
TAF
TIST 311739Z 3118/0118 12014G20KT P6SM SCT025 BKN040
     FM312300 10010KT P6SM FEW022 SCT040
     FM010600 08007KT P6SM VCSH SCT022
     FM011450 12014KT P6SM FEW025 SCT050=

USA.gov is the U.S. government's official web portal to all federal, state and local government web resources and services.